Time;durP1;ratioP1;P1;durP2;ratioP2;P2;SDS_P1;SDS_P2;PMS_P1;PMS_P2;Temp;Humidity;BMP_temperature;BMP_pressure;BME280_temperature;BME280_humidity;BME280_pressure;Samples;Min_cycle;Max_cycle;Signal;HPM_P1;HPM_P2
2021/07/13 02:48:30;;;;;;;2.03;1.92;;;19.80;99.90;;;;;;4930478;23;87945;-87
2021/07/13 02:50:58;;;;;;;2.90;2.70;;;19.60;99.90;;;;;;4927347;28;86826;-87
2021/07/13 02:53:27;;;;;;;3.30;3.10;;;19.40;99.90;;;;;;4930207;28;86902;-88
2021/07/13 02:55:53;;;;;;;2.08;1.92;;;19.70;99.90;;;;;;4926628;28;89944;-88
2021/07/13 02:58:21;;;;;;;3.30;3.10;;;19.90;99.90;;;;;;4946719;28;86953;-91
2021/07/13 03:00:47;;;;;;;2.90;2.80;;;19.70;99.90;;;;;;4947471;28;86555;-88
2021/07/13 03:03:14;;;;;;;1.50;1.40;;;19.60;99.90;;;;;;4943217;28;87040;-89
2021/07/13 03:05:42;;;;;;;3.47;3.28;;;19.70;99.90;;;;;;4944732;28;88234;-89
2021/07/13 03:08:08;;;;;;;3.47;3.30;;;19.70;99.90;;;;;;4939744;28;87276;-89
2021/07/13 03:10:35;;;;;;;1.42;1.33;;;19.70;99.90;;;;;;4939240;28;86106;-87
2021/07/13 03:13:01;;;;;;;1.70;1.60;;;19.60;99.90;;;;;;4924638;28;86974;-86
2021/07/13 03:15:32;;;;;;;3.33;3.13;;;19.90;99.90;;;;;;4914304;28;87213;-88
2021/07/13 03:17:58;;;;;;;1.83;1.73;;;19.70;99.90;;;;;;4906175;28;89843;-84
2021/07/13 03:20:25;;;;;;;3.30;3.10;;;19.80;99.90;;;;;;4923338;28;87408;-86
2021/07/13 03:22:53;;;;;;;1.90;1.80;;;19.70;99.90;;;;;;4926867;28;86391;-84
2021/07/13 03:25:24;;;;;;;1.98;1.70;;;19.80;99.90;;;;;;4926805;28;87405;-88
2021/07/13 03:27:51;;;;;;;1.70;1.60;;;19.80;99.90;;;;;;4926566;28;86611;-87
2021/07/13 03:30:18;;;;;;;1.70;1.60;;;19.70;99.90;;;;;;4924263;28;88039;-85
2021/07/13 03:32:46;;;;;;;3.30;3.20;;;19.70;99.90;;;;;;4923110;28;87200;-87
2021/07/13 03:35:13;;;;;;;4.05;3.85;;;19.80;99.90;;;;;;4925862;28;88125;-85
2021/07/13 03:37:39;;;;;;;3.67;3.30;;;19.90;99.90;;;;;;4925731;28;89137;-88
2021/07/13 03:40:07;;;;;;;2.50;1.90;;;19.70;99.90;;;;;;4928476;28;87093;-87
2021/07/13 03:42:33;;;;;;;3.40;3.20;;;14.90;99.90;;;;;;4928428;28;86993;-86
2021/07/13 03:44:59;;;;;;;2.15;1.63;;;19.70;99.90;;;;;;4929058;28;87606;-87
2021/07/13 03:47:24;;;;;;;1.70;1.60;;;19.70;99.90;;;;;;4924829;28;89870;-87
2021/07/13 03:49:50;;;;;;;1.75;1.65;;;19.70;99.90;;;;;;4911149;28;87046;-86
2021/07/13 03:52:17;;;;;;;1.92;1.83;;;19.80;99.90;;;;;;4911178;28;87084;-87
2021/07/13 03:54:43;;;;;;;3.30;3.10;;;19.80;99.90;;;;;;4908704;28;87982;-85
2021/07/13 03:57:09;;;;;;;1.60;1.50;;;19.80;99.90;;;;;;4908644;28;88336;-86
2021/07/13 03:59:35;;;;;;;1.95;1.85;;;19.70;99.90;;;;;;4909317;28;87102;-86
2021/07/13 04:02:00;;;;;;;2.30;1.50;;;19.70;99.90;;;;;;4905926;28;87183;-89
2021/07/13 04:04:26;;;;;;;3.63;3.35;;;19.70;99.90;;;;;;4898851;28;87463;-88
2021/07/13 04:06:52;;;;;;;2.25;1.58;;;19.70;99.90;;;;;;4906638;28;86964;-88
2021/07/13 04:09:18;;;;;;;1.80;1.70;;;19.70;99.90;;;;;;4906965;28;86753;-88
2021/07/13 04:11:46;;;;;;;2.17;1.67;;;19.70;99.90;;;;;;4908263;28;85840;-87
2021/07/13 04:14:11;;;;;;;1.60;1.50;;;19.60;99.90;;;;;;4905438;28;87780;-87
2021/07/13 04:16:37;;;;;;;2.00;1.60;;;19.60;99.90;;;;;;4903107;28;87180;-88
2021/07/13 04:19:04;;;;;;;3.00;1.88;;;19.60;99.90;;;;;;4914313;28;87938;-88
2021/07/13 04:21:29;;;;;;;1.80;1.70;;;19.60;99.90;;;;;;4910167;28;86674;-85
2021/07/13 04:23:55;;;;;;;1.80;1.70;;;19.60;99.90;;;;;;4898094;28;89300;-87
2021/07/13 04:26:22;;;;;;;4.63;3.40;;;19.70;99.90;;;;;;4910032;28;86978;-87
2021/07/13 04:28:48;;;;;;;2.30;1.80;;;19.60;99.90;;;;;;4902824;28;87163;-86
2021/07/13 04:31:14;;;;;;;3.70;3.50;;;;;;;;;;4907630;28;87090;-86
2021/07/13 04:33:40;;;;;;;1.77;1.60;;;19.60;99.90;;;;;;4887727;28;89098;-88
2021/07/13 04:36:06;;;;;;;1.80;1.67;;;19.70;99.90;;;;;;4914916;28;87588;-87
2021/07/13 04:38:32;;;;;;;3.80;3.60;;;;;;;;;;4902445;28;87177;-87
2021/07/13 04:40:57;;;;;;;3.35;3.17;;;19.50;99.90;;;;;;4906708;28;86923;-87
2021/07/13 04:43:23;;;;;;;3.88;3.58;;;19.60;99.90;;;;;;4908176;28;88732;-88
2021/07/13 04:45:49;;;;;;;3.15;3.00;;;;;;;;;;4905498;28;87155;-87
2021/07/13 04:48:15;;;;;;;2.42;1.50;;;19.60;99.90;;;;;;4894286;28;86971;-87
2021/07/13 04:50:41;;;;;;;1.73;1.63;;;19.70;99.90;;;;;;4889083;28;86628;-86
2021/07/13 04:53:07;;;;;;;1.85;1.67;;;19.70;99.90;;;;;;4887203;28;87602;-87
2021/07/13 04:55:33;;;;;;;3.00;2.90;;;;;;;;;;4888727;28;86735;-86
2021/07/13 04:58:00;;;;;;;2.78;2.67;;;19.60;99.90;;;;;;4890800;28;86711;-88
2021/07/13 05:00:25;;;;;;;1.70;1.40;;;19.60;99.90;;;;;;4890250;28;86119;-87
2021/07/13 05:02:51;;;;;;;1.55;1.45;;;19.50;99.90;;;;;;4870134;28;89832;-88
2021/07/13 05:05:17;;;;;;;2.25;1.42;;;19.50;99.90;;;;;;4887632;28;86684;-86
2021/07/13 05:07:47;;;;;;;1.40;1.30;;;19.50;99.90;;;;;;4887474;28;88036;-87
2021/07/13 05:10:17;;;;;;;1.48;1.38;;;19.40;99.90;;;;;;4888141;28;86741;-88
2021/07/13 05:12:43;;;;;;;1.33;1.33;;;19.40;99.90;;;;;;4870087;28;90040;-88
2021/07/13 05:15:12;;;;;;;1.33;1.23;;;19.40;99.90;;;;;;4889793;28;86946;-88
2021/07/13 05:17:38;;;;;;;1.60;1.50;;;19.40;99.90;;;;;;4895466;28;87052;-87
2021/07/13 05:20:08;;;;;;;1.02;1.02;;;19.40;99.90;;;;;;4894451;28;87220;-89
2021/07/13 05:22:35;;;;;;;2.88;2.67;;;;;;;;;;4879896;28;87642;-88
2021/07/13 05:25:02;;;;;;;1.35;1.25;;;19.40;99.90;;;;;;4890405;28;88138;-88
2021/07/13 05:27:29;;;;;;;3.05;2.85;;;19.80;99.90;;;;;;4885848;28;86885;-87
2021/07/13 05:29:55;;;;;;;1.17;1.17;;;19.50;99.90;;;;;;4885351;28;87106;-87
2021/07/13 05:32:20;;;;;;;2.65;2.55;;;19.90;99.90;;;;;;4884514;28;88307;-87
2021/07/13 05:34:47;;;;;;;3.70;2.60;;;19.50;99.90;;;;;;4885188;28;87207;-87
2021/07/13 05:37:12;;;;;;;2.60;2.50;;;19.30;99.90;;;;;;4884413;28;87079;-87
2021/07/13 05:39:38;;;;;;;3.05;2.92;;;;;;;;;;4873367;28;87119;-86
2021/07/13 05:42:04;;;;;;;1.30;1.20;;;19.50;99.90;;;;;;4884500;28;87383;-87
2021/07/13 05:44:30;;;;;;;1.35;1.30;;;19.40;99.90;;;;;;4895330;28;87413;-86
2021/07/13 05:46:56;;;;;;;4.45;1.63;;;19.40;99.90;;;;;;4890303;28;86980;-85
2021/07/13 05:49:22;;;;;;;5.63;3.70;;;;;;;;;;4907730;28;86253;-86
2021/07/13 05:51:47;;;;;;;1.55;1.30;;;19.20;99.90;;;;;;4902873;28;86949;-89
2021/07/13 05:54:13;;;;;;;2.28;1.40;;;19.20;99.90;;;;;;4905984;28;87019;-88
2021/07/13 05:56:39;;;;;;;3.85;2.58;;;;;;;;;;4905774;28;87990;-87
2021/07/13 05:59:05;;;;;;;3.50;3.30;;;19.10;99.90;;;;;;4911126;28;87019;-87
2021/07/13 06:01:31;;;;;;;1.60;1.50;;;19.20;99.90;;;;;;4905579;28;87534;-87
2021/07/13 06:03:57;;;;;;;6.22;3.38;;;;;;;;;;4908816;28;88356;-88
2021/07/13 06:06:23;;;;;;;2.60;2.50;;;19.30;99.90;;;;;;4908388;28;87113;-89
2021/07/13 06:08:49;;;;;;;3.45;3.15;;;;;;;;;;4908736;28;87051;-89
2021/07/13 06:11:15;;;;;;;2.17;1.60;;;19.30;99.90;;;;;;4905722;28;88337;-88
2021/07/13 06:13:40;;;;;;;1.48;1.33;;;19.30;99.90;;;;;;4911768;28;87390;-86
2021/07/13 06:16:06;;;;;;;1.20;1.10;;;19.20;99.90;;;;;;4913145;28;86967;-88
2021/07/13 06:18:32;;;;;;;2.80;2.70;;;18.80;99.90;;;;;;4909832;28;87036;-88
2021/07/13 06:20:58;;;;;;;2.63;2.53;;;18.70;99.90;;;;;;4893740;28;91386;-89
2021/07/13 06:23:23;;;;;;;1.00;1.00;;;18.70;99.90;;;;;;4911713;28;88032;-88
2021/07/13 06:25:49;;;;;;;1.00;1.00;;;18.50;99.90;;;;;;4910660;28;86803;-86
2021/07/13 06:28:15;;;;;;;1.10;1.10;;;18.60;99.90;;;;;;4912059;28;87094;-87
2021/07/13 06:30:40;;;;;;;1.20;1.20;;;18.40;99.90;;;;;;4910928;28;87079;-88
2021/07/13 06:33:07;;;;;;;2.50;2.40;;;;;;;;;;4911961;28;87712;-87
2021/07/13 06:35:32;;;;;;;2.60;2.50;;;18.50;99.90;;;;;;4912125;28;86512;-86
2021/07/13 06:37:59;;;;;;;2.50;2.40;;;18.10;99.90;;;;;;4910713;28;86353;-89
2021/07/13 06:40:26;;;;;;;2.58;2.47;;;18.50;99.90;;;;;;4914599;28;88758;-87
2021/07/13 06:42:51;;;;;;;0.80;0.80;;;18.00;99.90;;;;;;4911042;28;87641;-87
2021/07/13 06:45:17;;;;;;;2.20;2.10;;;;;;;;;;4909102;28;88118;-88
2021/07/13 06:47:43;;;;;;;2.50;2.40;;;17.80;99.90;;;;;;4907528;28;86888;-88
2021/07/13 06:50:10;;;;;;;2.60;2.50;;;18.40;99.90;;;;;;4907325;28;88244;-87
2021/07/13 06:52:35;;;;;;;0.90;0.90;;;17.80;99.90;;;;;;4890851;28;91611;-90
2021/07/13 06:55:03;;;;;;;2.65;2.45;;;17.60;99.90;;;;;;4896685;28;87051;-88
2021/07/13 06:57:29;;;;;;;2.65;2.55;;;17.80;99.90;;;;;;4907771;28;87446;-87
2021/07/13 06:59:59;;;;;;;1.00;1.00;;;17.70;99.90;;;;;;4907116;28;87162;-86
2021/07/13 07:02:26;;;;;;;0.90;0.90;;;17.70;99.90;;;;;;4907730;28;86332;-86
2021/07/13 07:04:52;;;;;;;2.50;2.40;;;17.50;99.90;;;;;;4906499;28;87036;-86
2021/07/13 07:07:18;;;;;;;2.72;2.63;;;17.50;99.90;;;;;;4908368;28;86572;-87
2021/07/13 07:09:44;;;;;;;1.10;1.10;;;17.50;99.90;;;;;;4905627;28;88988;-87
2021/07/13 07:12:10;;;;;;;1.10;1.10;;;17.40;99.90;;;;;;4912491;28;88282;-88
2021/07/13 07:14:35;;;;;;;1.10;1.10;;;17.40;99.90;;;;;;4908463;28;86925;-88
2021/07/13 07:17:01;;;;;;;1.33;1.30;;;17.40;99.90;;;;;;4907148;28;87029;-87
2021/07/13 07:19:27;;;;;;;1.25;1.25;;;17.40;99.90;;;;;;4892796;28;88372;-85
2021/07/13 07:21:52;;;;;;;1.38;1.27;;;17.50;99.90;;;;;;4904516;28;86668;-87
2021/07/13 07:24:18;;;;;;;2.58;2.47;;;;;;;;;;4905830;28;87007;-87
2021/07/13 07:26:44;;;;;;;1.10;1.00;;;17.70;99.40;;;;;;4907267;28;86394;-86
2021/07/13 07:29:10;;;;;;;1.10;1.10;;;17.80;99.70;;;;;;4906651;28;86988;-85
2021/07/13 07:31:36;;;;;;;2.55;2.45;;;17.90;99.50;;;;;;4904907;28;87278;-89
2021/07/13 07:34:02;;;;;;;2.50;2.40;;;;;;;;;;4905977;28;87253;-89
2021/07/13 07:36:27;;;;;;;2.40;2.30;;;17.70;99.00;;;;;;4906260;28;89076;-91
2021/07/13 07:38:54;;;;;;;1.10;1.10;;;17.80;99.20;;;;;;4906774;28;86518;-86
2021/07/13 07:41:20;;;;;;;0.93;0.93;;;17.90;99.90;;;;;;4906654;28;86954;-85
2021/07/13 07:43:47;;;;;;;2.40;2.30;;;17.80;99.60;;;;;;4906519;28;87193;-88
2021/07/13 07:46:13;;;;;;;2.53;2.42;;;17.90;99.60;;;;;;4905673;28;87051;-86
2021/07/13 07:48:39;;;;;;;2.58;2.47;;;;;;;;;;4905166;28;88048;-84
2021/07/13 07:51:05;;;;;;;2.40;2.30;;;17.60;97.80;;;;;;4905535;28;86598;-86
2021/07/13 07:53:31;;;;;;;2.40;2.30;;;;;;;;;;4904937;28;86914;-87
2021/07/13 07:55:57;;;;;;;2.58;2.47;;;17.40;99.30;;;;;;4905415;28;86876;-87
2021/07/13 07:58:23;;;;;;;2.90;2.80;;;18.60;99.00;;;;;;4907055;28;88853;-88
2021/07/13 08:00:49;;;;;;;1.77;1.00;;;17.90;98.50;;;;;;4902736;28;88276;-85
2021/07/13 08:03:14;;;;;;;2.80;2.70;;;17.80;98.50;;;;;;4904158;28;86718;-84
2021/07/13 08:05:42;;;;;;;2.50;2.40;;;;;;;;;;4904997;28;86811;-87
2021/07/13 08:08:08;;;;;;;2.40;2.30;;;18.00;98.00;;;;;;4903792;28;87079;-86
2021/07/13 08:10:35;;;;;;;0.90;0.90;;;18.00;98.20;;;;;;4898119;28;87878;-84
2021/07/13 08:13:01;;;;;;;2.50;2.40;;;18.00;97.10;;;;;;4904613;28;86889;-86
2021/07/13 08:15:27;;;;;;;0.93;0.80;;;18.00;97.30;;;;;;4886956;28;86350;-84
2021/07/13 08:17:53;;;;;;;1.10;1.10;;;18.10;96.80;;;;;;4905431;28;87340;-87
2021/07/13 08:20:20;;;;;;;1.42;1.00;;;18.20;96.90;;;;;;4893974;28;90568;-89
2021/07/13 08:22:47;;;;;;;2.60;2.50;;;18.40;96.40;;;;;;4884057;28;87566;-86
2021/07/13 08:25:17;;;;;;;2.50;2.40;;;18.60;96.50;;;;;;4887367;28;86508;-84
2021/07/13 08:27:43;;;;;;;0.90;0.90;;;18.60;96.60;;;;;;4887637;28;90973;-85
2021/07/13 08:30:09;;;;;;;0.90;0.90;;;18.70;95.30;;;;;;4905612;28;87257;-83
2021/07/13 08:32:35;;;;;;;2.60;2.50;;;19.10;95.70;;;;;;4906164;28;86880;-85
2021/07/13 08:35:01;;;;;;;2.53;2.42;;;19.40;95.50;;;;;;4909496;28;87011;-84
2021/07/13 08:37:29;;;;;;;2.35;2.25;;;19.10;95.50;;;;;;4904232;28;87622;-85
2021/07/13 08:39:55;;;;;;;2.67;2.58;;;;;;;;;;4910881;28;86988;-87
2021/07/13 08:42:21;;;;;;;2.40;2.30;;;19.10;94.30;;;;;;4912647;28;86959;-84
2021/07/13 08:44:47;;;;;;;1.05;1.05;;;19.00;94.50;;;;;;4905729;28;86893;-83
2021/07/13 08:47:17;;;;;;;2.60;2.50;;;18.70;95.00;;;;;;4905101;28;88388;-84
2021/07/13 08:49:43;;;;;;;2.60;2.50;;;18.70;95.50;;;;;;4906121;28;87862;-85
2021/07/13 08:52:09;;;;;;;2.65;2.40;;;18.40;95.60;;;;;;4906253;28;87097;-87
2021/07/13 08:54:35;;;;;;;0.80;0.80;;;18.70;95.80;;;;;;4906715;28;86948;-84
2021/07/13 08:57:01;;;;;;;0.82;0.82;;;18.60;94.90;;;;;;4906031;28;87285;-87
2021/07/13 08:59:27;;;;;;;2.22;2.13;;;;;;;;;;4902756;28;88767;-87
2021/07/13 09:01:54;;;;;;;2.40;2.30;;;17.90;95.70;;;;;;4905545;28;87169;-88
2021/07/13 09:04:31;;;;;;;0.82;0.82;;;18.10;96.00;;;;;;4903580;28;86261;-85
2021/07/13 09:06:57;;;;;;;0.90;0.90;;;18.10;96.90;;;;;;4907355;28;90089;-86
2021/07/13 09:09:30;;;;;;;0.90;0.90;;;18.10;96.30;;;;;;4905630;28;87858;-85
2021/07/13 09:12:08;;;;;;;1.88;1.15;;;18.10;97.00;;;;;;4912074;28;87850;-84
2021/07/13 09:14:50;;;;;;;2.40;2.30;;;18.60;99.30;;;;;;4907621;28;86967;-85
2021/07/13 09:17:34;;;;;;;3.00;1.00;;;18.50;99.70;;;;;;4898717;28;87216;-86
2021/07/13 09:20:21;;;;;;;1.33;1.15;;;18.60;98.80;;;;;;4904666;28;87356;-85
2021/07/13 09:22:55;;;;;;;2.53;2.42;;;18.70;99.20;;;;;;4899362;28;86586;-86
2021/07/13 09:25:31;;;;;;;2.50;2.33;;;18.90;99.70;;;;;;4906237;28;87056;-86
2021/07/13 09:28:14;;;;;;;1.05;1.00;;;18.90;99.90;;;;;;4887675;28;89236;-85
2021/07/13 09:30:45;;;;;;;1.65;1.10;;;19.00;99.90;;;;;;4905416;28;86987;-87
2021/07/13 09:33:24;;;;;;;1.08;1.08;;;19.00;99.90;;;;;;4916838;28;87029;-85
2021/07/13 09:36:11;;;;;;;2.90;2.70;;;18.70;99.70;;;;;;4912681;28;87054;-85
2021/07/13 09:38:39;;;;;;;1.00;1.00;;;19.20;99.90;;;;;;4891188;28;89563;-87
2021/07/13 09:41:05;;;;;;;2.72;2.53;;;;;;;;;;4910525;28;87846;-87
2021/07/13 09:43:43;;;;;;;0.93;0.93;;;19.20;99.40;;;;;;4909180;28;87326;-86
2021/07/13 09:46:29;;;;;;;2.60;2.40;;;18.90;99.50;;;;;;4913255;28;86710;-89
2021/07/13 09:49:21;;;;;;;1.00;1.00;;;18.90;99.70;;;;;;4907039;28;87011;-86
2021/07/13 09:52:05;;;;;;;2.40;2.30;;;18.50;99.70;;;;;;4907704;28;87076;-89
2021/07/13 09:54:40;;;;;;;2.92;2.83;;;18.60;99.80;;;;;;4908584;28;87060;-90
2021/07/13 09:57:16;;;;;;;2.38;2.28;;;18.20;99.90;;;;;;4911958;28;85611;-87
2021/07/13 09:59:44;;;;;;;2.78;2.67;;;18.20;99.90;;;;;;4908292;28;91570;-88
2021/07/13 10:02:10;;;;;;;2.78;2.67;;;18.50;99.90;;;;;;4910053;28;87035;-89
2021/07/13 10:04:38;;;;;;;0.90;0.90;;;18.30;99.90;;;;;;4908390;28;87902;-87
2021/07/13 10:07:11;;;;;;;1.63;1.23;;;18.40;99.90;;;;;;4913387;28;87294;-86
2021/07/13 10:09:41;;;;;;;0.90;0.90;;;18.40;99.90;;;;;;4896060;28;90226;-88
2021/07/13 10:12:14;;;;;;;0.90;0.90;;;18.50;99.90;;;;;;4912382;28;87876;-84
2021/07/13 10:14:44;;;;;;;2.50;2.40;;;17.80;99.90;;;;;;4903134;28;86906;-85
2021/07/13 10:17:11;;;;;;;2.22;1.20;;;17.80;99.90;;;;;;4911482;28;86912;-85
2021/07/13 10:19:51;;;;;;;1.80;1.70;;;17.90;99.90;;;;;;4920311;28;87378;-86
2021/07/13 10:22:19;;;;;;;2.60;2.50;;;18.70;99.90;;;;;;4894838;28;90336;-87
2021/07/13 10:24:54;;;;;;;2.58;2.47;;;18.00;99.90;;;;;;4914689;28;86510;-85
2021/07/13 10:27:32;;;;;;;2.50;1.40;;;18.40;99.90;;;;;;4912437;28;86892;-85
2021/07/13 10:30:16;;;;;;;1.40;1.30;;;18.50;99.90;;;;;;4894557;28;90991;-85
2021/07/13 10:32:43;;;;;;;2.45;2.35;;;18.60;99.90;;;;;;4914105;28;88284;-88
2021/07/13 10:35:23;;;;;;;1.63;1.00;;;18.50;99.90;;;;;;4902245;28;86982;-86
2021/07/13 10:38:13;;;;;;;1.08;1.08;;;18.50;99.90;;;;;;4890372;28;86879;-85
2021/07/13 10:40:40;;;;;;;1.42;1.20;;;18.60;99.90;;;;;;4907348;28;87736;-87
2021/07/13 10:43:34;;;;;;;1.40;1.17;;;18.70;99.90;;;;;;4911392;28;87321;-85
2021/07/13 10:46:11;;;;;;;2.08;1.30;;;18.90;99.90;;;;;;4911112;28;86977;-88
2021/07/13 10:48:38;;;;;;;1.05;1.05;;;19.00;99.90;;;;;;4902799;28;86036;-88
2021/07/13 10:51:07;;;;;;;1.00;1.00;;;19.10;99.90;;;;;;4912777;28;86743;-88
2021/07/13 10:53:42;;;;;;;1.00;1.00;;;19.70;99.90;;;;;;4913485;28;87287;-87
2021/07/13 10:56:10;;;;;;;1.15;1.13;;;19.70;99.90;;;;;;4909058;28;87946;-89
2021/07/13 10:58:39;;;;;;;2.60;2.50;;;19.70;98.40;;;;;;4912923;28;87005;-88
2021/07/13 11:01:08;;;;;;;15.35;6.13;;;19.70;98.60;;;;;;4918210;28;86688;-87
2021/07/13 11:03:36;;;;;;;2.95;2.00;;;19.80;99.20;;;;;;4914095;28;87080;-86
2021/07/13 11:06:03;;;;;;;1.10;1.10;;;19.80;99.00;;;;;;4919995;28;86935;-84
2021/07/13 11:08:40;;;;;;;1.88;0.93;;;19.50;99.80;;;;;;4915275;28;87087;-87
2021/07/13 11:11:09;;;;;;;1.40;1.30;;;19.10;99.90;;;;;;4907435;28;90244;-89
2021/07/13 11:13:36;;;;;;;1.98;1.20;;;18.90;99.90;;;;;;4907899;28;88023;-89
2021/07/13 11:16:03;;;;;;;1.13;1.10;;;18.70;99.90;;;;;;4908683;28;86374;-89
2021/07/13 11:18:31;;;;;;;1.35;1.10;;;18.50;99.90;;;;;;4910270;28;87181;-85
2021/07/13 11:21:18;;;;;;;1.27;1.20;;;18.30;99.90;;;;;;4908896;28;88294;-90
2021/07/13 11:23:46;;;;;;;1.55;1.45;;;18.20;99.90;;;;;;4902608;28;87955;-88
2021/07/13 11:26:13;;;;;;;1.80;1.20;;;18.00;99.90;;;;;;4906574;28;86869;-87
2021/07/13 11:28:47;;;;;;;3.15;2.95;;;17.90;99.90;;;;;;4909070;28;87115;-88
2021/07/13 11:31:40;;;;;;;2.90;2.80;;;17.80;99.90;;;;;;4910783;28;87769;-88
2021/07/13 11:34:14;;;;;;;1.25;1.20;;;17.80;99.90;;;;;;4910855;28;87091;-86
2021/07/13 11:36:41;;;;;;;1.30;0.90;;;17.90;99.90;;;;;;4908137;28;86901;-87
2021/07/13 11:39:13;;;;;;;1.88;1.77;;;17.90;99.90;;;;;;4907929;28;86452;-89
2021/07/13 11:41:40;;;;;;;3.03;2.65;;;18.60;99.90;;;;;;4908123;28;86589;-86
2021/07/13 11:44:08;;;;;;;1.88;1.30;;;18.40;99.90;;;;;;4906938;28;87082;-84
2021/07/13 11:46:36;;;;;;;3.05;2.85;;;18.70;99.90;;;;;;4907287;28;87977;-86
2021/07/13 11:49:08;;;;;;;1.60;1.20;;;18.80;99.90;;;;;;4908096;28;86997;-86
2021/07/13 11:51:34;;;;;;;5.03;1.35;;;18.90;99.90;;;;;;4915776;28;87623;-85
2021/07/13 11:54:02;;;;;;;0.90;0.90;;;19.20;99.90;;;;;;4907529;28;86995;-86
2021/07/13 11:56:30;;;;;;;2.72;2.63;;;19.00;99.90;;;;;;4907555;28;86727;-87
2021/07/13 11:58:56;;;;;;;1.30;1.08;;;19.10;99.90;;;;;;4905130;28;86973;-86
2021/07/13 12:01:24;;;;;;;1.50;1.30;;;19.00;99.90;;;;;;4908687;28;87526;-88
2021/07/13 12:03:52;;;;;;;2.65;2.55;;;18.50;99.90;;;;;;4908381;28;86821;-89
2021/07/13 12:06:21;;;;;;;2.50;2.40;;;18.90;99.90;;;;;;4905045;28;87175;-86
2021/07/13 12:09:04;;;;;;;1.40;1.30;;;18.50;99.90;;;;;;4908052;28;87050;-88
2021/07/13 12:11:33;;;;;;;3.45;2.30;;;17.70;99.90;;;;;;4907235;28;89194;-84
2021/07/13 12:14:01;;;;;;;2.60;2.50;;;17.40;99.90;;;;;;4906782;28;87870;-86
2021/07/13 12:16:31;;;;;;;1.30;1.20;;;17.60;99.90;;;;;;4902064;28;86721;-84
2021/07/13 12:19:02;;;;;;;2.65;2.45;;;18.00;99.90;;;;;;4902127;28;87092;-86
2021/07/13 12:21:29;;;;;;;2.83;2.70;;;17.80;99.90;;;;;;4907781;28;86920;-89
2021/07/13 12:23:57;;;;;;;1.10;1.10;;;18.00;99.90;;;;;;4907920;28;87220;-87
2021/07/13 12:26:30;;;;;;;1.35;1.20;;;18.00;99.90;;;;;;4909140;28;87039;-85
2021/07/13 12:29:02;;;;;;;1.25;1.25;;;18.10;99.90;;;;;;4921913;28;85969;-92
2021/07/13 12:31:27;;;;;;;1.60;1.10;;;18.60;99.90;;;;;;4927225;28;87845;-92
2021/07/13 12:33:54;;;;;;;3.35;1.30;;;18.90;99.90;;;;;;4927148;28;86145;-92
2021/07/13 12:36:30;;;;;;;2.28;1.50;;;19.20;99.90;;;;;;4926886;28;89260;-89
2021/07/13 12:39:11;;;;;;;1.95;1.20;;;19.90;99.90;;;;;;4927192;28;86326;-92
2021/07/13 12:41:36;;;;;;;2.97;2.78;;;21.20;97.10;;;;;;4915724;28;87447;-92
2021/07/13 12:44:48;;;;;;;1.05;1.00;;;20.90;97.20;;;;;;4917092;28;86819;-89
2021/07/13 12:47:17;;;;;;;1.42;1.27;;;21.50;95.70;;;;;;4906323;28;87031;-89
2021/07/13 12:49:57;;;;;;;2.60;2.50;;;22.40;93.80;;;;;;4911056;28;87109;-88
2021/07/13 12:52:40;;;;;;;1.00;1.00;;;22.40;93.90;;;;;;4909673;28;87004;-89
2021/07/13 12:55:08;;;;;;;1.10;1.10;;;22.40;88.60;;;;;;4914783;28;86961;-88
2021/07/13 12:57:36;;;;;;;1.27;1.20;;;22.10;91.40;;;;;;4909978;28;86989;-88
2021/07/13 13:00:07;;;;;;;1.88;1.20;;;22.00;92.40;;;;;;4909909;28;86159;-87
2021/07/13 13:02:33;;;;;;;;;;;21.80;91.40;;;;;;4903365;28;89307;-85
2021/07/13 13:04:58;;;;;;;1.27;1.23;;;21.80;92.60;;;;;;4907034;28;87574;-88
2021/07/13 13:07:24;;;;;;;1.20;1.10;;;21.60;92.40;;;;;;4910034;28;86952;-88
2021/07/13 13:09:50;;;;;;;2.88;2.78;;;21.50;92.80;;;;;;4927869;28;86977;-85
2021/07/13 13:12:17;;;;;;;1.10;1.10;;;21.30;92.90;;;;;;4910156;28;86931;-88
2021/07/13 13:14:46;;;;;;;3.28;3.08;;;20.80;92.60;;;;;;4909546;28;87094;-88
2021/07/13 13:17:13;;;;;;;2.97;2.83;;;20.70;93.20;;;;;;4909220;28;86985;-88
2021/07/13 13:19:42;;;;;;;1.60;1.48;;;20.80;93.40;;;;;;4907837;28;86141;-88
2021/07/13 13:22:08;;;;;;;1.27;1.10;;;20.70;93.60;;;;;;4909366;28;86870;-88
2021/07/13 13:24:35;;;;;;;2.92;2.83;;;;;;;;;;4909119;28;87282;-86
2021/07/13 13:27:03;;;;;;;1.00;1.00;;;20.40;93.60;;;;;;4908898;28;87477;-86
2021/07/13 13:29:30;;;;;;;2.20;2.10;;;20.00;91.60;;;;;;4906888;28;87059;-89
2021/07/13 13:31:56;;;;;;;2.50;2.40;;;19.50;92.90;;;;;;4907754;28;87086;-85
2021/07/13 13:34:24;;;;;;;1.02;1.02;;;19.70;93.10;;;;;;4911125;28;86744;-85
2021/07/13 13:36:53;;;;;;;2.30;2.20;;;19.40;93.30;;;;;;4909915;28;87063;-87
2021/07/13 13:39:18;;;;;;;2.40;2.30;;;19.50;93.40;;;;;;4914591;28;87070;-87
2021/07/13 13:41:45;;;;;;;2.75;2.65;;;19.20;93.40;;;;;;4907586;28;87373;-87
2021/07/13 13:44:11;;;;;;;2.50;2.40;;;;;;;;;;4909278;28;87082;-86
2021/07/13 13:46:38;;;;;;;2.75;2.65;;;19.40;94.90;;;;;;4908742;28;86515;-87
2021/07/13 13:49:04;;;;;;;1.63;1.13;;;19.40;95.10;;;;;;4893364;28;86803;-88
2021/07/13 13:51:30;;;;;;;1.73;1.02;;;19.40;95.90;;;;;;4888895;28;88138;-88
2021/07/13 13:53:55;;;;;;;1.90;1.05;;;19.40;95.30;;;;;;4889192;28;88416;-88
2021/07/13 13:56:24;;;;;;;0.95;0.90;;;19.40;95.60;;;;;;4886278;28;87095;-86
2021/07/13 13:58:50;;;;;;;1.00;1.00;;;19.40;95.30;;;;;;4898759;28;87019;-89
2021/07/13 14:01:18;;;;;;;1.05;1.05;;;19.30;95.50;;;;;;4888386;28;86966;-88
2021/07/13 14:03:44;;;;;;;0.90;0.90;;;19.20;95.00;;;;;;4881896;28;86878;-88
2021/07/13 14:06:11;;;;;;;0.90;0.90;;;19.10;95.50;;;;;;4881577;28;86585;-84
2021/07/13 14:08:38;;;;;;;1.05;1.05;;;19.10;95.10;;;;;;4890090;28;86215;-88
2021/07/13 14:11:06;;;;;;;2.58;2.47;;;18.90;96.80;;;;;;4889654;28;87666;-88
2021/07/13 14:13:32;;;;;;;2.50;2.40;;;18.70;96.40;;;;;;4889557;28;86994;-89
2021/07/13 14:16:00;;;;;;;1.02;1.02;;;18.90;96.50;;;;;;4885281;28;87996;-89
2021/07/13 14:18:26;;;;;;;2.60;2.40;;;18.40;95.40;;;;;;4858826;28;87018;-91
2021/07/13 14:20:53;;;;;;;2.85;2.65;;;18.60;96.00;;;;;;4889081;28;87789;-92
2021/07/13 14:23:19;;;;;;;1.52;1.30;;;18.60;96.20;;;;;;4896731;28;87400;-89
2021/07/13 14:25:45;;;;;;;1.02;1.00;;;18.60;97.30;;;;;;4884994;28;86986;-90
2021/07/13 14:28:11;;;;;;;2.40;2.30;;;18.60;97.90;;;;;;4903942;28;87206;-89
2021/07/13 14:30:37;;;;;;;0.90;0.90;;;18.70;98.10;;;;;;4906945;28;86966;-84
2021/07/13 14:33:04;;;;;;;1.30;1.00;;;18.70;97.20;;;;;;4891394;28;87142;-88
2021/07/13 14:35:29;;;;;;;1.00;1.00;;;18.70;97.50;;;;;;4900929;28;87024;-87
2021/07/13 14:37:55;;;;;;;1.20;1.20;;;18.70;97.80;;;;;;4873804;28;86795;-87
2021/07/13 14:40:21;;;;;;;1.33;1.33;;;18.60;97.50;;;;;;4888607;28;88461;-89
2021/07/13 14:42:47;;;;;;;1.85;1.27;;;18.60;97.80;;;;;;4897292;28;89060;-88
2021/07/13 14:45:13;;;;;;;1.58;1.00;;;18.70;98.50;;;;;;4893075;28;87061;-89
2021/07/13 14:47:39;;;;;;;1.20;1.20;;;18.90;98.50;;;;;;4895615;28;87131;-87
2021/07/13 14:50:06;;;;;;;1.27;1.20;;;19.10;98.40;;;;;;4897026;28;88239;-87
2021/07/13 14:52:32;;;;;;;1.27;1.27;;;19.40;96.90;;;;;;4889014;28;90586;-88
2021/07/13 14:54:59;;;;;;;1.00;1.00;;;19.60;96.60;;;;;;4899302;28;86998;-88
2021/07/13 14:57:26;;;;;;;1.48;1.30;;;19.70;95.10;;;;;;4890839;28;86130;-88
2021/07/13 14:59:51;;;;;;;1.17;1.00;;;19.90;94.60;;;;;;4901238;28;86873;-88
2021/07/13 15:02:17;;;;;;;1.45;1.35;;;19.90;94.10;;;;;;4901033;28;88861;-87
2021/07/13 15:04:43;;;;;;;1.10;1.10;;;20.20;94.40;;;;;;4888630;28;87524;-89
2021/07/13 15:07:09;;;;;;;1.10;1.10;;;20.50;94.50;;;;;;4891217;28;87050;-87
2021/07/13 15:09:35;;;;;;;1.52;1.30;;;20.70;92.50;;;;;;4892444;28;87214;-88
2021/07/13 15:12:00;;;;;;;1.05;1.05;;;20.70;93.20;;;;;;4891901;28;86992;-88
2021/07/13 15:14:26;;;;;;;1.13;1.13;;;20.80;92.40;;;;;;4877965;28;86811;-88
2021/07/13 15:16:52;;;;;;;1.48;1.25;;;21.00;92.40;;;;;;4878658;28;86910;-88
2021/07/13 15:19:18;;;;;;;0.90;0.90;;;21.20;92.30;;;;;;4887914;28;87222;-86
2021/07/13 15:21:44;;;;;;;1.10;1.10;;;21.40;91.70;;;;;;4892046;28;86243;-88
2021/07/13 15:24:10;;;;;;;1.30;1.20;;;21.60;91.60;;;;;;4893185;28;86876;-88
2021/07/13 15:26:36;;;;;;;1.40;1.10;;;21.70;90.90;;;;;;4888304;28;87009;-88
2021/07/13 15:29:03;;;;;;;1.08;1.00;;;21.80;91.00;;;;;;4890104;28;87683;-87
2021/07/13 15:31:29;;;;;;;1.48;1.38;;;21.90;90.50;;;;;;4880005;28;89313;-88
2021/07/13 15:33:58;;;;;;;1.10;1.10;;;21.90;90.00;;;;;;4886692;28;87002;-87
2021/07/13 15:36:24;;;;;;;1.20;1.20;;;22.00;90.20;;;;;;4888441;28;86747;-89
2021/07/13 15:38:50;;;;;;;1.30;1.20;;;22.00;89.10;;;;;;4871747;28;89119;-90
2021/07/13 15:41:16;;;;;;;1.90;1.20;;;22.00;89.50;;;;;;4892715;28;87234;-89
2021/07/13 15:43:42;;;;;;;2.88;2.78;;;;;;;;;;4894149;28;87047;-90
2021/07/13 15:46:08;;;;;;;2.75;2.65;;;;;;;;;;4895379;28;86266;-87
2021/07/13 15:48:34;;;;;;;2.88;2.50;;;21.80;88.10;;;;;;4901536;28;87103;-88